• Join FlightAware (Why Join?)
  • Login
  • US Flag 
09:29PM EDT


 

Airport Tracker/Info


-or-


 

Live Flight TrackerFlight Track Log ✈ SWA1276 ✈ 18-Apr-2013 ✈ KJAX - KBWI

Flight Track Log - Related Links

Times and Time Zones

All times are in EDT time to prevent confusion due to time zone crossing. See the SWA1276 flight status page for this flight to view local times or setup timezone preferences in your user account.

Time Position Orientation Groundspeed Altitude Reporting Facility
EDT Latitude Longitude Course Direction KTS MPH feet Rate Location/Type
07:24PM 30.5381 -81.6311 48° Northeast 165 190 3,200  Level Jacksonville Center
07:25PM 30.6047 -81.6256 North 176 203 7,000 3,480 Climbing Jacksonville Center
07:26PM 30.6778 -81.6147 North 230 265 10,200 2,700 Climbing Jacksonville Center
07:27PM 30.7672 -81.6017 North 278 320 12,400 2,700 Climbing Jacksonville Center
07:28PM 30.8694 -81.5711 14° North 334 384 15,600 3,060 Climbing Jacksonville Center
07:29PM 30.9756 -81.5406 14° North 364 419 18,600 3,000 Climbing Jacksonville Center
07:30PM 31.0836 -81.5097 14° North 389 448 21,600 2,640 Climbing Jacksonville Center
07:31PM 31.1942 -81.4792 13° North 403 464 23,900 2,400 Climbing Jacksonville Center
07:32PM 31.3086 -81.4458 14° North 412 474 26,500 2,460 Climbing Jacksonville Center
07:33PM 31.4231 -81.4244 North 412 474 28,900 2,040 Climbing Jacksonville Center
07:34PM 31.5439 -81.4031 North 422 486 30,600 2,040 Climbing Jacksonville Center
07:35PM 31.6503 -81.3867 North 427 491 33,000 2,160 Climbing Jacksonville Center
07:36PM 31.7772 -81.3628 North 422 486 35,000 1,560 Climbing Jacksonville Center
07:37PM 31.8894 -81.3217 17° North 422 486 36,200 1,260 Climbing Jacksonville Center
07:38PM 31.9864 -81.2294 39° Northeast 428 493 37,600 1,500 Climbing Jacksonville Center
07:39PM 32.0833 -81.1419 37° Northeast 445 512 39,200 1,320 Climbing Jacksonville Center
07:40PM 32.1742 -81.0592 38° Northeast 445 512 40,300 780 Climbing Jacksonville Center
07:41PM 32.2792 -80.9611 38° Northeast 445 512 40,800 300 Climbing Jacksonville Center
07:42PM 32.3739 -80.8706 39° Northeast 440 506 41,000  Climbing Jacksonville Center
07:43PM 32.4683 -80.7800 39° Northeast 445 512 40,900 -60 Descending Jacksonville Center
07:44PM 32.5647 -80.6864 39° Northeast 438 504 40,900  Level Jacksonville Center
07:45PM 32.6592 -80.5978 38° Northeast 441 507 40,900  Level Jacksonville Center
07:46PM 32.7558 -80.5064 38° Northeast 436 502 40,900  Level Jacksonville Center
07:47PM 32.8500 -80.4175 38° Northeast 436 502 40,900  Level Jacksonville Center
07:48PM 32.9461 -80.3231 39° Northeast 436 502 41,000  Climbing Jacksonville Center
07:49PM 33.0342 -80.2389 39° Northeast 449 517 41,000  Level Jacksonville Center
07:50PM 33.1222 -80.1519 40° Northeast 442 509 41,000 -60 Level Jacksonville Center
07:51PM 33.2222 -80.0569 38° Northeast 442 509 40,900 -60 Descending Jacksonville Center
07:52PM 33.3142 -79.9672 39° Northeast 442 509 40,900  Level Jacksonville Center
07:53PM 33.4081 -79.8769 39° Northeast 437 503 41,000  Climbing Jacksonville Center
07:54PM 33.4997 -79.7892 39° Northeast 437 503 41,000 -60 Level Jacksonville Center
07:55PM 33.5936 -79.6961 40° Northeast 437 503 40,900 -60 Descending Jacksonville Center
07:56PM 33.6850 -79.6028 40° Northeast 437 503 40,900  Level Jacksonville Center
07:57PM 33.7767 -79.5144 39° Northeast 437 503 40,900  Level Jacksonville Center
07:59PM 33.9439 -79.3492 39° Northeast 410 472 40,900  Level Washington Center
08:00PM 34.0364 -79.2556 40° Northeast 415 478 40,900  Level Washington Center
08:01PM 34.1289 -79.1669 38° Northeast 415 478 40,900  Level Washington Center
08:02PM 34.2297 -79.0683 39° Northeast 415 478 40,900  Level Washington Center
08:03PM 34.3283 -78.9819 36° Northeast 421 484 40,900  Level Washington Center
08:04PM 34.4306 -78.9056 32° Northeast 421 484 40,900  Level Washington Center
08:05PM 34.5350 -78.8267 32° Northeast 432 497 40,900  Level Washington Center
08:06PM 34.6306 -78.7672 27° Northeast 438 504 41,000  Climbing Washington Center
08:07PM 34.7550 -78.7064 22° Northeast 431 496 41,000  Level Washington Center
08:08PM 34.8522 -78.6619 21° North 425 489 41,000  Level Washington Center
08:09PM 34.9600 -78.6078 22° Northeast 420 483 41,000  Level Washington Center
08:10PM 35.0700 -78.5536 22° Northeast 415 478 41,000  Level Washington Center
08:11PM 35.1797 -78.4992 22° Northeast 415 478 41,000  Level Washington Center
08:12PM 35.2853 -78.4444 23° Northeast 415 478 41,000  Level Washington Center
08:13PM 35.3953 -78.3897 22° Northeast 415 478 41,000  Level Washington Center
08:14PM 35.5219 -78.3253 22° Northeast 427 491 41,000  Level Washington Center
08:15PM 35.6358 -78.2703 21° North 427 491 41,000 -480 Level Washington Center
08:16PM 35.7453 -78.2203 20° North 433 498 40,100 -6,000 Descending Washington Center
08:17PM 35.8550 -78.1675 21° North 428 493 29,000 -2,760 Descending Washington Center
08:18PM 35.9647 -78.1122 22° Northeast 423 487 34,600 1,260 Climbing Washington Center
08:19PM 36.0786 -78.0542 22° Northeast 423 487 31,600 -2,760 Descending Washington Center
08:20PM 36.1903 -77.9983 22° Northeast 423 487 29,100 -1,320 Descending Washington Center
08:21PM 36.3106 -77.9375 22° Northeast 440 506 29,000 -60 Descending Washington Center
08:22PM 36.4053 -77.8889 22° Northeast 445 512 29,000  Level Washington Center
08:23PM 36.5317 -77.8228 23° Northeast 445 512 29,000  Level Washington Center
08:24PM 36.6475 -77.7639 22° Northeast 445 512 29,000 -300 Level Washington Center
08:25PM 36.7656 -77.7050 22° Northeast 445 512 28,500 -540 Descending Washington Center
08:26PM 36.8811 -77.6458 22° Northeast 450 518 28,000 -420 Descending Washington Center
08:27PM 36.9969 -77.5839 23° Northeast 450 518 27,700 -660 Descending Washington Center
08:28PM 37.1106 -77.5269 22° Northeast 444 511 26,700 -1,020 Descending Washington Center
08:29PM 37.2242 -77.4672 23° Northeast 438 504 25,700 -1,020 Descending Washington Center
08:30PM 37.3336 -77.4097 23° Northeast 438 504 24,700 -1,080 Descending Washington Center
08:31PM 37.4428 -77.3547 22° Northeast 433 498 23,600 -900 Descending Washington Center
08:32PM 37.5561 -77.3103 17° North 428 493 23,000 -300 Descending Washington Center
08:33PM 37.6669 -77.2867 10° North 410 472 23,000  Level Washington Center
08:34PM 37.7819 -77.2628 North 410 472 23,000  Level Washington Center
08:35PM 37.8928 -77.2389 10° North 410 472 23,000 -240 Level Washington Center
08:36PM 38.0081 -77.2153 North 410 472 22,600 -1,260 Descending Washington Center
08:37PM 38.1167 -77.1964 North 403 464 20,500 -2,220 Descending Washington Center
08:38PM 38.2256 -77.1697 11° North 403 464 18,200 -2,220 Descending Washington Center
08:39PM 38.3319 -77.1508 North 389 448 16,100 -1,800 Descending Washington Center
08:40PM 38.4225 -77.0944 26° Northeast 382 440 14,700 -1,800 Descending Washington Center
08:41PM 38.4944 -77.0028 45° Northeast 352 405 12,500 -1,800 Descending Washington Center
08:42PM 38.5747 -76.9061 43° Northeast 357 411 11,200 -1,200 Descending Washington Center
08:43PM 38.6422 -76.8250 43° Northeast 337 388 10,100 -1,140 Descending Washington Center
08:44PM 38.7014 -76.7489 45° Northeast 318 366 9,000 -1,140 Descending Washington Center
08:45PM 38.7439 -76.6564 59° Northeast 301 346 7,900 -1,200 Descending Washington Center
08:45PM 38.7667 -76.6167 54° Northeast 295 339 7,400 -1,440 Descending Potomac TRACON
08:46PM 38.8000 -76.5333 63° Northeast 299 344 6,100 -1,440 Descending Potomac TRACON
08:47PM 38.8833 -76.5500 351° North 275 316 4,700 -1,080 Descending Potomac TRACON
08:48PM 38.9500 -76.5833 339° North 275 316 4,000 -360 Descending Potomac TRACON
08:49PM 39.0000 -76.6500 314° West 249 287 4,000 -300 Level Potomac TRACON
08:50PM 39.0333 -76.7167 303° West 239 275 3,500 -600 Descending Potomac TRACON
08:51PM 39.0667 -76.8000 297° West 244 281 2,900 -600 Descending Potomac TRACON
08:52PM 39.1167 -76.8167 346° North 242 278 2,300 -600 Descending Potomac TRACON
08:53PM 39.1833 -76.8167 360° North 211 243 1,700 -600 Descending Potomac TRACON
08:54PM 39.1833 -76.7500 90° East 148 170 1,200 -660 Descending Potomac TRACON
08:55PM 39.1833 -76.7000 90° East 121 139 400 -780 Descending Potomac TRACON
08:57PM 39.1667 -76.6667 104° East  Level FlightAware Approximate
09:04PM 39.1754 -76.6683 104° East  Level Estimated
09:05PM 39.1754 -76.6683 104° East  Level Estimated
09:06PM 39.1754 -76.6683 104° East  Level Estimated